Phillipstown, Mississippi
Current Conditions -  °F | °C
As of 3:53 PM on Saturday 25 Oct 2014 (Local Time) from KGWO Reporting Station
Clear Clear  
Wind Chill: 81°   Ceiling: Unl
Heat Index: 82°   Visibility: 10mi
Dew Point: 61°   Wind: 6mph
Humidity: 50%   Direction: 300°WNW
Pressure: 30.05"   Gusts: NA
Location:  33.3926°N, 90.1584°W
Report Text: KGWO 252053Z AUTO 30005KT 10SM CLR 27/16 A3005 RMK AO2 SLP173 T02720161 56022 TSNO
Loading
Personal Weather Stations






























Interactive Weather Map
Tropical Storm Tracking
New forecast layout! Learn more

10-Day Weather Forecast

Advertisements
Track Severe Weather on mobile